createdAt,value
2022-10-26T00:00:26.516Z,100.00
2022-10-26T00:02:56.834Z,100.00
2022-10-26T00:05:23.947Z,100.00
2022-10-26T00:07:51.042Z,100.00
2022-10-26T00:10:17.521Z,100.00
2022-10-26T00:12:43.969Z,100.00
2022-10-26T00:15:10.644Z,100.00
2022-10-26T00:17:37.143Z,100.00
2022-10-26T00:20:04.005Z,100.00
2022-10-26T00:22:30.446Z,100.00
2022-10-26T00:24:56.954Z,100.00
2022-10-26T00:27:23.656Z,100.00
2022-10-26T00:29:50.108Z,100.00
2022-10-26T00:32:16.639Z,100.00
2022-10-26T00:34:43.110Z,100.00
2022-10-26T00:37:09.764Z,100.00
2022-10-26T00:39:36.586Z,100.00
2022-10-26T00:42:03.321Z,100.00
2022-10-26T00:44:48.323Z,100.00
2022-10-26T00:47:17.681Z,100.00
2022-10-26T00:49:47.450Z,100.00
2022-10-26T00:52:15.555Z,100.00
2022-10-26T00:54:42.117Z,100.00
2022-10-26T00:57:08.628Z,100.00
2022-10-26T00:59:35.213Z,100.00
2022-10-26T01:02:01.804Z,100.00
2022-10-26T01:04:28.697Z,100.00
2022-10-26T01:06:55.641Z,100.00
2022-10-26T01:09:22.657Z,100.00
2022-10-26T01:11:49.403Z,100.00
2022-10-26T01:14:18.207Z,100.00
2022-10-26T01:20:04.655Z,100.00
2022-10-26T01:22:37.372Z,100.00
2022-10-26T01:25:15.991Z,100.00
2022-10-26T01:27:47.811Z,100.00
2022-10-26T01:30:26.837Z,100.00
2022-10-26T01:33:18.830Z,100.00
2022-10-26T01:36:04.082Z,100.00
2022-10-26T01:38:52.705Z,100.00
2022-10-26T01:41:28.296Z,100.00
2022-10-26T01:44:19.088Z,100.00
2022-10-26T01:46:47.072Z,100.00
2022-10-26T01:49:15.688Z,100.00
2022-10-26T01:51:44.305Z,100.00
2022-10-26T01:54:11.174Z,100.00
2022-10-26T01:56:41.291Z,100.00
2022-10-26T01:59:18.030Z,100.00
2022-10-26T02:01:59.801Z,100.00
2022-10-26T02:05:04.678Z,100.00
2022-10-26T02:07:34.122Z,100.00
2022-10-26T02:10:12.589Z,100.00
2022-10-26T02:12:47.457Z,100.00
2022-10-26T02:15:32.476Z,100.00
2022-10-26T02:18:17.387Z,100.00
2022-10-26T02:20:48.289Z,100.00
2022-10-26T02:23:14.973Z,100.00
2022-10-26T02:25:48.072Z,100.00
2022-10-26T02:28:18.546Z,100.00
2022-10-26T02:30:46.566Z,100.00
2022-10-26T02:33:14.087Z,100.00
2022-10-26T02:35:41.945Z,100.00
2022-10-26T02:38:10.064Z,100.00
2022-10-26T02:40:37.636Z,100.00
2022-10-26T02:43:07.870Z,100.00
2022-10-26T02:45:41.328Z,100.00
2022-10-26T02:48:07.822Z,100.00
2022-10-26T02:50:43.267Z,100.00
2022-10-26T02:53:24.481Z,100.00
2022-10-26T02:55:51.403Z,100.00
2022-10-26T02:58:26.647Z,100.00
2022-10-26T03:00:53.480Z,100.00
2022-10-26T03:03:20.282Z,100.00
2022-10-26T03:05:46.735Z,100.00
2022-10-26T03:08:13.397Z,100.00
2022-10-26T03:10:44.826Z,100.00
2022-10-26T03:13:12.712Z,100.00
2022-10-26T03:15:39.327Z,100.00
2022-10-26T03:18:06.155Z,100.00
2022-10-26T03:20:32.641Z,100.00
2022-10-26T03:22:59.193Z,100.00
2022-10-26T03:25:26.090Z,100.00
2022-10-26T03:28:03.636Z,100.00
2022-10-26T03:30:30.850Z,100.00
2022-10-26T03:32:57.631Z,100.00
2022-10-26T03:35:27.619Z,100.00
2022-10-26T03:37:54.794Z,100.00
2022-10-26T03:40:21.291Z,100.00
2022-10-26T03:42:48.079Z,100.00
2022-10-26T03:45:15.038Z,100.00
2022-10-26T03:47:48.891Z,100.00
2022-10-26T03:50:18.099Z,100.00
2022-10-26T03:52:44.728Z,100.00
2022-10-26T03:55:11.176Z,100.00
2022-10-26T03:57:44.854Z,100.00
2022-10-26T04:00:15.344Z,100.00
2022-10-26T04:02:43.564Z,100.00
2022-10-26T04:05:10.159Z,100.00
2022-10-26T04:07:36.635Z,100.00
2022-10-26T04:10:04.439Z,100.00
2022-10-26T04:12:31.307Z,100.00
2022-10-26T04:14:58.348Z,100.00
2022-10-26T04:17:25.174Z,100.00
2022-10-26T04:19:51.740Z,100.00
2022-10-26T04:22:18.234Z,100.00
2022-10-26T04:24:44.738Z,100.00
2022-10-26T04:27:11.192Z,100.00
2022-10-26T04:29:37.649Z,100.00
2022-10-26T04:32:04.549Z,100.00
2022-10-26T04:34:31.020Z,100.00
2022-10-26T04:36:57.606Z,100.00
2022-10-26T04:39:24.287Z,100.00
2022-10-26T04:41:50.771Z,100.00
2022-10-26T04:44:17.290Z,100.00
2022-10-26T04:46:43.704Z,100.00
2022-10-26T04:49:10.532Z,100.00
2022-10-26T04:51:37.657Z,100.00
2022-10-26T04:54:04.439Z,100.00
2022-10-26T04:56:30.886Z,100.00
2022-10-26T04:58:57.377Z,100.00
2022-10-26T05:01:23.961Z,100.00
2022-10-26T05:03:52.254Z,100.00
2022-10-26T05:06:20.049Z,100.00
2022-10-26T05:08:46.745Z,100.00
2022-10-26T05:11:13.619Z,100.00
2022-10-26T05:13:40.171Z,100.00
2022-10-26T05:16:07.285Z,100.00
2022-10-26T05:18:33.793Z,100.00
2022-10-26T05:21:00.355Z,100.00
2022-10-26T05:23:26.854Z,100.00
2022-10-26T05:25:55.273Z,100.00
2022-10-26T05:28:21.893Z,100.00
2022-10-26T05:30:48.473Z,100.00
2022-10-26T05:33:15.471Z,100.00
2022-10-26T05:35:42.550Z,100.00
2022-10-26T05:38:18.252Z,100.00
2022-10-26T05:40:48.913Z,100.00
2022-10-26T05:43:15.364Z,100.00
2022-10-26T05:45:41.859Z,100.00
2022-10-26T05:48:08.329Z,100.00
2022-10-26T05:50:35.077Z,100.00
2022-10-26T05:53:01.777Z,100.00
2022-10-26T05:55:28.691Z,100.00
2022-10-26T05:57:55.461Z,100.00
2022-10-26T06:00:24.825Z,100.00
2022-10-26T06:03:16.410Z,100.00
2022-10-26T06:05:57.344Z,100.00
2022-10-26T06:08:28.306Z,100.00
2022-10-26T06:10:56.650Z,100.00
2022-10-26T06:13:23.347Z,100.00
2022-10-26T06:16:06.595Z,100.00
2022-10-26T06:18:36.114Z,100.00
2022-10-26T06:21:14.776Z,100.00
2022-10-26T06:23:57.304Z,100.00
2022-10-26T06:26:31.903Z,100.00
2022-10-26T06:29:04.506Z,100.00
2022-10-26T06:31:30.980Z,100.00
2022-10-26T06:34:00.083Z,100.00
2022-10-26T06:36:28.239Z,100.00
2022-10-26T06:39:00.172Z,100.00
2022-10-26T06:41:26.876Z,100.00
2022-10-26T06:43:53.625Z,100.00
2022-10-26T06:46:23.030Z,100.00
2022-10-26T06:48:58.400Z,100.00
2022-10-26T06:51:25.726Z,100.00
2022-10-26T06:54:24.781Z,100.00
2022-10-26T06:56:52.384Z,100.00
2022-10-26T06:59:30.083Z,100.00
2022-10-26T07:01:56.928Z,100.00
2022-10-26T07:04:23.478Z,100.00
2022-10-26T07:06:49.998Z,100.00
2022-10-26T07:09:16.469Z,100.00
2022-10-26T07:11:42.923Z,100.00
2022-10-26T07:14:09.495Z,100.00
2022-10-26T07:16:35.976Z,97.65
2022-10-26T07:19:02.515Z,100.00
2022-10-26T07:21:28.969Z,96.93
2022-10-26T07:23:57.008Z,100.00
2022-10-26T07:26:25.595Z,92.40
2022-10-26T07:28:52.194Z,84.27
2022-10-26T07:31:18.802Z,80.57
2022-10-26T07:33:45.420Z,81.78
2022-10-26T07:36:12.562Z,77.38
2022-10-26T07:38:39.656Z,73.00
2022-10-26T07:41:09.184Z,73.22
2022-10-26T07:43:35.643Z,72.58
2022-10-26T07:46:02.173Z,84.19
2022-10-26T07:48:28.629Z,77.48
2022-10-26T07:50:55.385Z,79.02
2022-10-26T07:53:26.756Z,76.34
2022-10-26T07:55:55.525Z,79.64
2022-10-26T07:58:26.241Z,72.99
2022-10-26T08:00:53.582Z,69.74
2022-10-26T08:03:20.639Z,69.73
2022-10-26T08:05:51.106Z,72.42
2022-10-26T08:08:20.896Z,73.27
2022-10-26T08:10:47.832Z,76.47
2022-10-26T08:13:14.467Z,73.48
2022-10-26T08:15:41.197Z,76.02
2022-10-26T08:18:07.797Z,76.21
2022-10-26T08:20:34.379Z,82.62
2022-10-26T08:23:01.356Z,96.40
2022-10-26T08:25:28.001Z,100.00
2022-10-26T08:27:54.510Z,98.34
2022-10-26T08:30:21.130Z,98.18
2022-10-26T08:32:47.958Z,95.29
2022-10-26T08:35:14.862Z,85.37
2022-10-26T08:37:41.355Z,82.75
2022-10-26T08:40:11.409Z,75.90
2022-10-26T08:42:40.979Z,73.57
2022-10-26T08:45:18.431Z,70.13
2022-10-26T08:47:48.191Z,62.08
2022-10-26T08:50:21.168Z,59.33
2022-10-26T08:52:54.973Z,57.58
2022-10-26T08:55:25.653Z,57.65
2022-10-26T08:57:53.117Z,61.09
2022-10-26T09:00:23.758Z,62.05
2022-10-26T09:02:51.321Z,63.19
2022-10-26T09:05:23.957Z,68.80
2022-10-26T09:08:32.277Z,70.79
2022-10-26T09:11:08.690Z,73.00
2022-10-26T09:13:56.339Z,70.64
2022-10-26T09:16:25.367Z,69.79
2022-10-26T09:19:36.670Z,73.58
2022-10-26T09:22:27.309Z,71.56
2022-10-26T09:24:56.206Z,68.50
2022-10-26T09:27:30.591Z,63.23
2022-10-26T09:30:00.074Z,61.58
2022-10-26T09:32:32.352Z,60.27
2022-10-26T09:35:03.620Z,62.78
2022-10-26T09:37:34.274Z,62.20
2022-10-26T09:40:11.380Z,67.86
2022-10-26T09:42:49.339Z,69.63
2022-10-26T09:45:20.998Z,65.35
2022-10-26T09:47:53.615Z,62.97
2022-10-26T09:50:27.438Z,68.04
2022-10-26T09:52:53.943Z,66.26
2022-10-26T09:55:22.549Z,63.75
2022-10-26T09:57:52.345Z,64.39
2022-10-26T10:00:20.293Z,65.77
2022-10-26T10:02:55.052Z,68.39
2022-10-26T10:05:39.104Z,67.76
2022-10-26T10:08:20.187Z,72.79
2022-10-26T10:11:02.544Z,69.24
2022-10-26T10:13:34.203Z,70.90
2022-10-26T10:16:05.159Z,71.59
2022-10-26T10:18:32.606Z,69.74
2022-10-26T10:20:59.517Z,72.84
2022-10-26T10:23:31.541Z,71.13
2022-10-26T10:26:00.018Z,73.06
2022-10-26T10:28:27.439Z,70.80
2022-10-26T10:31:19.770Z,68.53
2022-10-26T10:33:46.773Z,67.78
2022-10-26T10:36:19.984Z,65.98
2022-10-26T10:38:48.954Z,65.21
2022-10-26T10:41:36.601Z,63.00
2022-10-26T10:44:22.935Z,64.11
2022-10-26T10:46:49.470Z,65.11
2022-10-26T10:49:21.589Z,61.79
2022-10-26T10:51:48.524Z,61.11
2022-10-26T10:54:25.336Z,59.87
2022-10-26T10:56:54.052Z,58.94
2022-10-26T10:59:45.593Z,55.16
2022-10-26T11:02:26.259Z,57.59
2022-10-26T11:05:23.320Z,61.08
2022-10-26T11:07:55.850Z,56.45
2022-10-26T11:10:23.864Z,58.47
2022-10-26T11:12:58.489Z,55.48
2022-10-26T11:15:28.385Z,53.91
2022-10-26T11:18:07.687Z,55.26
2022-10-26T11:20:38.661Z,50.58
2022-10-26T11:23:20.911Z,52.66
2022-10-26T11:25:54.384Z,50.09
2022-10-26T11:28:34.037Z,50.48
2022-10-26T11:31:05.266Z,50.07
2022-10-26T11:33:41.702Z,51.63
2022-10-26T11:36:22.026Z,50.96
2022-10-26T11:39:09.963Z,54.39
2022-10-26T11:41:51.375Z,55.78
2022-10-26T11:44:24.773Z,54.58
2022-10-26T11:47:03.729Z,53.62
2022-10-26T11:49:39.650Z,51.50
2022-10-26T11:52:17.993Z,49.19
2022-10-26T11:54:52.158Z,51.84
2022-10-26T11:57:18.766Z,54.41
2022-10-26T11:59:49.434Z,49.19
2022-10-26T12:02:19.889Z,50.79
2022-10-26T12:04:50.184Z,52.23
2022-10-26T12:07:23.595Z,53.34
2022-10-26T12:09:50.731Z,51.16
2022-10-26T12:12:39.106Z,50.37
2022-10-26T12:15:35.454Z,51.07
2022-10-26T12:18:54.581Z,48.99
2022-10-26T12:21:25.109Z,49.49
2022-10-26T12:23:58.671Z,51.37
2022-10-26T12:26:28.095Z,50.86
2022-10-26T12:29:03.801Z,51.95
2022-10-26T12:31:36.093Z,52.67
2022-10-26T12:34:11.641Z,54.87
2022-10-26T12:36:50.446Z,56.79
2022-10-26T12:39:40.555Z,55.98
2022-10-26T12:42:09.909Z,55.05
2022-10-26T12:44:48.555Z,55.84
2022-10-26T12:47:29.974Z,54.88
2022-10-26T12:50:05.784Z,55.87
2022-10-26T12:53:18.399Z,57.69
2022-10-26T12:55:54.767Z,59.30
2022-10-26T12:58:27.296Z,60.01
2022-10-26T13:00:59.803Z,57.78
2022-10-26T13:03:41.518Z,56.69
2022-10-26T13:06:20.675Z,57.21
2022-10-26T13:08:51.591Z,59.27
2022-10-26T13:11:29.451Z,59.42
2022-10-26T13:13:58.944Z,63.07
2022-10-26T13:16:27.230Z,63.99
2022-10-26T13:18:53.831Z,63.96
2022-10-26T13:21:21.390Z,66.05
2022-10-26T13:23:53.901Z,65.55
2022-10-26T13:26:24.467Z,64.02
2022-10-26T13:28:57.216Z,63.26
2022-10-26T13:31:32.777Z,62.89
2022-10-26T13:34:01.617Z,63.66
2022-10-26T13:36:33.623Z,65.32
2022-10-26T13:39:03.429Z,60.40
2022-10-26T13:41:34.829Z,60.70
2022-10-26T13:44:05.719Z,60.40
2022-10-26T13:46:36.103Z,60.69
2022-10-26T13:49:39.223Z,62.52
2022-10-26T13:52:06.747Z,61.60
2022-10-26T13:54:37.939Z,61.45
2022-10-26T13:57:19.441Z,60.62
2022-10-26T13:59:46.449Z,59.62
2022-10-26T14:02:30.499Z,65.37
2022-10-26T14:05:01.808Z,62.29
2022-10-26T14:07:35.849Z,65.19
2022-10-26T14:10:02.412Z,63.22
2022-10-26T14:12:29.063Z,61.72
2022-10-26T14:15:03.129Z,61.25
2022-10-26T14:17:29.629Z,61.06
2022-10-26T14:19:56.120Z,61.83
2022-10-26T14:24:53.180Z,63.90
2022-10-26T14:27:22.570Z,67.75
2022-10-26T14:30:10.171Z,73.31
2022-10-26T14:32:37.697Z,77.12
2022-10-26T14:35:04.460Z,78.67
2022-10-26T14:37:43.526Z,74.42
2022-10-26T14:40:16.947Z,78.33
2022-10-26T14:42:46.187Z,76.40
2022-10-26T14:45:54.428Z,82.80
2022-10-26T14:48:31.129Z,74.32
2022-10-26T14:51:09.377Z,71.68
2022-10-26T14:53:38.507Z,75.52
2022-10-26T14:56:06.715Z,77.31
2022-10-26T14:58:33.870Z,78.37
2022-10-26T15:01:22.381Z,81.14
2022-10-26T15:04:06.292Z,84.32
2022-10-26T15:06:40.412Z,87.44
2022-10-26T15:09:31.016Z,88.95
2022-10-26T15:11:57.719Z,90.72
2022-10-26T15:14:24.180Z,90.95
2022-10-26T15:16:54.338Z,92.51
2022-10-26T15:19:23.956Z,91.49
2022-10-26T15:21:52.331Z,93.76
2022-10-26T15:24:38.819Z,93.32
2022-10-26T15:27:13.931Z,94.11
2022-10-26T15:29:51.700Z,94.24
2022-10-26T15:32:26.624Z,96.29
2022-10-26T15:35:11.484Z,97.93
2022-10-26T15:37:38.484Z,97.86
2022-10-26T15:40:05.448Z,98.41
2022-10-26T15:42:31.972Z,100.00
2022-10-26T15:44:59.454Z,100.00
2022-10-26T15:47:30.486Z,100.00
2022-10-26T15:49:56.937Z,100.00
2022-10-26T15:52:23.350Z,100.00
2022-10-26T15:54:49.814Z,100.00
2022-10-26T15:57:19.206Z,100.00
2022-10-26T15:59:47.945Z,100.00
2022-10-26T16:02:15.588Z,100.00
2022-10-26T16:04:42.505Z,100.00
2022-10-26T16:07:13.769Z,100.00
2022-10-26T16:09:41.124Z,100.00
2022-10-26T16:12:11.878Z,100.00
2022-10-26T16:14:53.260Z,100.00
2022-10-26T16:17:25.424Z,100.00
2022-10-26T16:19:51.846Z,100.00
2022-10-26T16:22:18.893Z,100.00
2022-10-26T16:24:45.344Z,100.00
2022-10-26T16:27:11.889Z,100.00
2022-10-26T16:29:38.637Z,100.00
2022-10-26T16:32:05.234Z,100.00
2022-10-26T16:34:31.645Z,100.00
2022-10-26T16:36:58.103Z,100.00
2022-10-26T16:39:24.594Z,100.00
2022-10-26T16:41:51.419Z,100.00
2022-10-26T16:44:17.932Z,100.00
2022-10-26T16:46:44.396Z,100.00
2022-10-26T16:49:11.104Z,100.00
2022-10-26T16:51:37.723Z,100.00
2022-10-26T16:54:04.715Z,100.00
2022-10-26T16:56:31.210Z,100.00
2022-10-26T16:58:57.793Z,100.00
2022-10-26T17:01:25.539Z,100.00
2022-10-26T17:03:52.805Z,100.00
2022-10-26T17:06:19.665Z,100.00
2022-10-26T17:08:46.643Z,100.00
2022-10-26T17:11:16.169Z,100.00
2022-10-26T17:13:43.515Z,100.00
2022-10-26T17:16:12.766Z,100.00
2022-10-26T17:18:40.815Z,100.00
2022-10-26T17:21:08.961Z,100.00
2022-10-26T17:23:35.577Z,100.00
2022-10-26T17:26:06.103Z,100.00
2022-10-26T17:28:32.730Z,100.00
2022-10-26T17:31:09.889Z,100.00
2022-10-26T17:33:38.022Z,100.00
2022-10-26T17:36:06.041Z,100.00
2022-10-26T17:38:34.511Z,100.00
2022-10-26T17:41:02.611Z,100.00
2022-10-26T17:43:33.660Z,100.00
2022-10-26T17:46:01.368Z,100.00
2022-10-26T17:48:29.066Z,100.00
2022-10-26T17:50:58.581Z,100.00
2022-10-26T17:53:25.230Z,100.00
2022-10-26T17:56:00.265Z,100.00
2022-10-26T17:58:26.724Z,100.00
2022-10-26T18:00:53.158Z,100.00
2022-10-26T18:03:19.622Z,100.00
2022-10-26T18:05:50.521Z,100.00
2022-10-26T18:08:17.598Z,100.00
2022-10-26T18:10:51.084Z,100.00
2022-10-26T18:13:17.601Z,100.00
2022-10-26T18:15:44.290Z,100.00
2022-10-26T18:18:10.766Z,100.00
2022-10-26T18:20:37.780Z,100.00
2022-10-26T18:23:04.603Z,100.00
2022-10-26T18:25:31.499Z,100.00
2022-10-26T18:27:58.072Z,100.00
2022-10-26T18:30:25.037Z,100.00
2022-10-26T18:32:52.455Z,100.00
2022-10-26T18:35:19.821Z,100.00
2022-10-26T18:37:46.428Z,100.00
2022-10-26T18:40:13.216Z,100.00
2022-10-26T18:42:39.704Z,100.00
2022-10-26T18:45:06.636Z,100.00
2022-10-26T18:47:33.372Z,100.00
2022-10-26T18:49:59.832Z,100.00
2022-10-26T18:52:27.921Z,100.00
2022-10-26T18:54:54.758Z,100.00
2022-10-26T18:57:26.826Z,100.00
2022-10-26T18:59:54.900Z,100.00
2022-10-26T19:02:23.033Z,100.00
2022-10-26T19:04:53.023Z,100.00
2022-10-26T19:07:19.737Z,100.00
2022-10-26T19:09:46.185Z,100.00
2022-10-26T19:12:13.040Z,100.00
2022-10-26T19:14:39.562Z,100.00
2022-10-26T19:17:06.166Z,100.00
2022-10-26T19:19:32.652Z,100.00
2022-10-26T19:22:00.298Z,100.00
2022-10-26T19:24:26.852Z,100.00
2022-10-26T19:26:54.116Z,100.00
2022-10-26T19:29:21.087Z,100.00
2022-10-26T19:31:50.200Z,100.00
2022-10-26T19:34:17.314Z,100.00
2022-10-26T19:36:46.144Z,100.00
2022-10-26T19:39:14.664Z,100.00
2022-10-26T19:41:41.338Z,100.00
2022-10-26T19:44:09.898Z,100.00
2022-10-26T19:46:36.779Z,100.00
2022-10-26T19:49:03.405Z,100.00
2022-10-26T19:51:31.210Z,100.00
2022-10-26T19:54:03.879Z,100.00
2022-10-26T19:56:31.844Z,100.00
2022-10-26T19:58:58.484Z,100.00
2022-10-26T20:01:25.039Z,100.00
2022-10-26T20:03:51.878Z,100.00
2022-10-26T20:06:18.509Z,100.00
2022-10-26T20:08:47.389Z,100.00
2022-10-26T20:11:16.190Z,100.00
2022-10-26T20:13:44.218Z,100.00
2022-10-26T20:16:11.883Z,100.00
2022-10-26T20:18:41.319Z,100.00
2022-10-26T20:21:11.566Z,100.00
2022-10-26T20:23:38.195Z,100.00
2022-10-26T20:28:36.234Z,100.00
2022-10-26T20:31:02.758Z,100.00
2022-10-26T20:33:29.189Z,100.00
2022-10-26T20:35:59.128Z,100.00
2022-10-26T20:38:26.293Z,100.00
2022-10-26T20:40:57.713Z,100.00
2022-10-26T20:43:25.744Z,100.00
2022-10-26T20:45:52.685Z,100.00
2022-10-26T20:48:19.554Z,100.00
2022-10-26T20:50:59.577Z,100.00
2022-10-26T20:53:28.705Z,100.00
2022-10-26T20:55:59.403Z,100.00
2022-10-26T20:58:32.767Z,100.00
2022-10-26T21:01:01.082Z,100.00
2022-10-26T21:03:27.753Z,100.00
2022-10-26T21:05:54.191Z,100.00
2022-10-26T21:08:20.698Z,100.00
2022-10-26T21:10:47.130Z,100.00
2022-10-26T21:13:13.669Z,100.00
2022-10-26T21:15:40.202Z,100.00
2022-10-26T21:18:06.869Z,100.00
2022-10-26T21:20:33.377Z,100.00
2022-10-26T21:22:59.899Z,100.00
2022-10-26T21:25:26.380Z,100.00
2022-10-26T21:27:56.839Z,100.00
2022-10-26T21:30:26.720Z,100.00
2022-10-26T21:32:53.401Z,100.00
2022-10-26T21:35:20.551Z,100.00
2022-10-26T21:37:47.627Z,100.00
2022-10-26T21:40:14.981Z,100.00
2022-10-26T21:42:41.588Z,100.00
2022-10-26T21:45:08.598Z,100.00
2022-10-26T21:47:35.091Z,100.00
2022-10-26T21:50:01.633Z,100.00
2022-10-26T21:52:28.713Z,100.00
2022-10-26T21:54:55.189Z,100.00
2022-10-26T21:57:21.616Z,100.00
2022-10-26T21:59:48.078Z,100.00
2022-10-26T22:02:14.634Z,100.00
2022-10-26T22:04:41.133Z,100.00
2022-10-26T22:07:07.624Z,100.00
2022-10-26T22:09:40.678Z,100.00
2022-10-26T22:12:16.180Z,100.00
2022-10-26T22:14:42.666Z,100.00
2022-10-26T22:17:09.244Z,100.00
2022-10-26T22:19:35.670Z,100.00
2022-10-26T22:22:02.103Z,100.00
2022-10-26T22:24:28.794Z,100.00
2022-10-26T22:26:55.296Z,100.00
2022-10-26T22:29:21.795Z,100.00
2022-10-26T22:31:48.295Z,100.00
2022-10-26T22:34:16.350Z,100.00
2022-10-26T22:36:43.147Z,100.00
2022-10-26T22:39:09.632Z,100.00
2022-10-26T22:41:36.078Z,100.00
2022-10-26T22:44:02.673Z,100.00
2022-10-26T22:46:29.363Z,100.00
2022-10-26T22:49:01.618Z,100.00
2022-10-26T22:51:33.124Z,100.00
2022-10-26T22:54:01.695Z,100.00
2022-10-26T22:56:29.571Z,100.00
2022-10-26T22:58:56.314Z,100.00
2022-10-26T23:01:26.241Z,100.00
2022-10-26T23:03:56.233Z,100.00
2022-10-26T23:06:24.564Z,100.00
2022-10-26T23:08:51.352Z,100.00
2022-10-26T23:11:20.911Z,100.00
2022-10-26T23:13:47.787Z,100.00
2022-10-26T23:16:18.103Z,100.00
2022-10-26T23:18:45.393Z,100.00
2022-10-26T23:21:13.689Z,100.00
2022-10-26T23:23:40.835Z,100.00
2022-10-26T23:26:13.572Z,100.00
2022-10-26T23:28:40.991Z,100.00
2022-10-26T23:31:08.119Z,100.00
2022-10-26T23:33:35.096Z,100.00
2022-10-26T23:36:01.645Z,100.00
2022-10-26T23:38:28.972Z,100.00
2022-10-26T23:40:58.009Z,100.00
2022-10-26T23:43:27.598Z,100.00
2022-10-26T23:45:57.298Z,100.00
2022-10-26T23:48:23.859Z,100.00
2022-10-26T23:50:51.348Z,100.00
2022-10-26T23:53:20.411Z,100.00
2022-10-26T23:55:47.695Z,100.00
2022-10-26T23:58:15.313Z,100.00
